Time;durP1;ratioP1;P1;durP2;ratioP2;P2;SDS_P1;SDS_P2;PMS_P1;PMS_P2;Temp;Humidity;BMP_temperature;BMP_pressure;BME280_temperature;BME280_humidity;BME280_pressure;Samples;Min_cycle;Max_cycle;Signal;HPM_P1;HPM_P2
2021/10/10 00:00:31;;;;;;;51.73;27.53;;;;;;;5.76;100.00;102618.06;2107698;28;20094;-67
2021/10/10 00:01:32;;;;;;;56.00;27.70;;;;;;;5.75;100.00;102616.34;2107695;28;20020;-66
2021/10/10 00:02:32;;;;;;;54.83;27.33;;;;;;;5.75;100.00;102618.94;2107693;28;20052;-67
2021/10/10 00:03:32;;;;;;;62.30;31.63;;;;;;;5.70;100.00;102618.91;2107678;28;20035;-67
2021/10/10 00:04:33;;;;;;;54.03;26.93;;;;;;;5.71;100.00;102619.78;2107758;28;20020;-66
2021/10/10 00:05:33;;;;;;;50.95;26.00;;;;;;;5.71;100.00;102617.19;2106988;28;20028;-67
2021/10/10 00:06:33;;;;;;;55.10;26.67;;;;;;;5.70;100.00;102618.03;2107088;28;20035;-66
2021/10/10 00:07:34;;;;;;;58.63;28.63;;;;;;;5.69;100.00;102616.28;2107591;28;20020;-67
2021/10/10 00:08:34;;;;;;;50.00;26.00;;;;;;;5.66;100.00;102618.03;2107697;28;20016;-68
2021/10/10 00:09:34;;;;;;;51.90;25.70;;;;;;;5.64;100.00;102614.53;2107552;28;20071;-67
2021/10/10 00:10:35;;;;;;;48.67;25.27;;;;;;;5.63;100.00;102619.72;2107576;28;20140;-68
2021/10/10 00:11:35;;;;;;;53.00;27.63;;;;;;;5.61;100.00;102619.69;2106938;28;20561;-66
2021/10/10 00:12:35;;;;;;;50.43;26.83;;;;;;;5.58;100.00;102619.66;2106992;28;20024;-67
2021/10/10 00:13:36;;;;;;;50.70;25.60;;;;;;;5.59;100.00;102625.72;2107609;28;20031;-67
2021/10/10 00:14:36;;;;;;;45.83;25.47;;;;;;;5.57;100.00;102615.34;2106842;28;20027;-67
2021/10/10 00:15:36;;;;;;;53.40;25.67;;;;;;;5.57;100.00;102617.09;2106963;28;20115;-67
2021/10/10 00:16:36;;;;;;;52.17;26.93;;;;;;;5.54;100.00;102618.78;2106872;28;20020;-67
2021/10/10 00:17:37;;;;;;;49.73;25.07;;;;;;;5.56;100.00;102616.22;2106747;28;20032;-66
2021/10/10 00:18:38;;;;;;;48.05;23.95;;;;;;;5.58;100.00;102614.50;2098540;28;20020;-66
2021/10/10 00:19:38;;;;;;;48.20;22.60;;;;;;;5.58;100.00;102606.72;2107005;28;20484;-66
2021/10/10 00:20:38;;;;;;;50.40;24.70;;;;;;;5.57;100.00;102612.75;2106850;28;20100;-66
2021/10/10 00:21:38;;;;;;;54.03;25.70;;;;;;;5.54;100.00;102611.03;2106941;28;20065;-66
2021/10/10 00:22:39;;;;;;;47.17;26.07;;;;;;;5.53;100.00;102613.59;2107573;28;20055;-67
2021/10/10 00:23:39;;;;;;;57.05;27.40;;;;;;;5.53;100.00;102611.00;2107572;28;20031;-66
2021/10/10 00:24:39;;;;;;;53.10;28.17;;;;;;;5.52;100.00;102614.47;2107552;28;20016;-66
2021/10/10 00:25:40;;;;;;;43.90;25.57;;;;;;;5.51;100.00;102617.91;2107511;28;20028;-67
2021/10/10 00:26:40;;;;;;;50.17;28.37;;;;;;;5.47;100.00;102613.56;2107503;28;20357;-66
2021/10/10 00:27:41;;;;;;;56.67;28.90;;;;;;;5.44;100.00;102616.13;2107496;28;20054;-67
2021/10/10 00:28:41;;;;;;;46.35;24.80;;;;;;;5.43;100.00;102614.41;2107505;28;20062;-66
2021/10/10 00:29:41;;;;;;;61.37;26.90;;;;;;;5.41;100.00;102620.41;2106785;28;20020;-66
2021/10/10 00:30:42;;;;;;;48.93;27.07;;;;;;;5.41;100.00;102617.81;2106944;28;20024;-66
2021/10/10 00:31:42;;;;;;;51.80;27.00;;;;;;;5.41;100.00;102617.81;2107437;28;20076;-66
2021/10/10 00:32:43;;;;;;;58.90;27.93;;;;;;;5.40;100.00;102615.22;2107471;28;20024;-67
2021/10/10 00:33:43;;;;;;;54.55;26.08;;;;;;;5.38;100.00;102607.44;2107301;28;20089;-67
2021/10/10 00:34:43;;;;;;;51.87;27.27;;;;;;;5.37;100.00;102605.72;2107450;28;20035;-66
2021/10/10 00:35:43;;;;;;;55.40;25.83;;;;;;;5.36;100.00;102611.75;2106784;28;20024;-66
2021/10/10 00:36:44;;;;;;;47.63;24.63;;;;;;;5.36;100.00;102609.16;2106899;28;20028;-66
2021/10/10 00:37:45;;;;;;;49.13;26.57;;;;;;;5.34;100.00;102603.09;2107419;28;20115;-66
2021/10/10 00:38:45;;;;;;;54.50;27.85;;;;;;;5.35;100.00;102601.38;2107413;28;20361;-68
2021/10/10 00:39:46;;;;;;;54.60;26.97;;;;;;;5.34;100.00;102600.50;2107425;28;20155;-67
2021/10/10 00:40:46;;;;;;;56.60;27.73;;;;;;;5.35;100.00;102607.44;2107435;28;20035;-66
2021/10/10 00:41:47;;;;;;;52.05;26.85;;;;;;;5.32;100.00;102599.63;2107335;28;20469;-67
2021/10/10 00:42:47;;;;;;;53.13;27.17;;;;;;;5.31;100.00;102605.69;2107451;28;20108;-68
2021/10/10 00:43:47;;;;;;;52.03;26.27;;;;;;;5.31;100.00;102600.50;2107342;28;20032;-66
2021/10/10 00:44:48;;;;;;;51.30;25.60;;;;;;;5.30;100.00;102600.47;2107367;28;20051;-66
2021/10/10 00:45:50;;;;;;;54.55;27.60;;;;;;;5.27;100.00;102603.94;2107309;28;20039;-66
2021/10/10 00:46:51;;;;;;;60.03;27.42;;;;;;;5.24;100.00;102599.56;2107201;28;20032;-66
2021/10/10 00:47:51;;;;;;;49.03;25.70;;;;;;;5.22;100.00;102603.00;2107353;28;20362;-66
2021/10/10 00:48:51;;;;;;;47.63;25.87;;;;;;;5.19;100.00;102600.38;2107335;28;20028;-66
2021/10/10 00:49:51;;;;;;;53.70;26.27;;;;;;;5.18;100.00;102594.34;2107344;28;20024;-66
2021/10/10 00:50:52;;;;;;;60.40;28.13;;;;;;;5.19;100.00;102592.59;2107285;28;20035;-65
2021/10/10 00:51:53;;;;;;;53.60;27.17;;;;;;;5.20;100.00;102590.03;2107367;28;20480;-67
2021/10/10 00:52:53;;;;;;;53.22;28.73;;;;;;;5.19;100.00;102592.59;2107331;28;20035;-66
2021/10/10 00:53:54;;;;;;;57.60;28.50;;;;;;;5.17;100.00;102591.75;2106647;28;20067;-66
2021/10/10 00:54:56;;;;;;;57.30;29.00;;;;;;;5.15;100.00;102595.19;2106694;28;20027;-66
2021/10/10 00:55:56;;;;;;;54.88;26.63;;;;;;;5.13;100.00;102585.66;2106624;28;20030;-66
2021/10/10 00:56:57;;;;;;;66.50;28.58;;;;;;;5.13;100.00;102591.72;2106514;28;20055;-66
2021/10/10 00:58:00;;;;;;;50.90;25.23;;;;;;;5.14;100.00;102593.44;2106563;28;20024;-67
2021/10/10 00:59:01;;;;;;;49.60;26.55;;;;;;;5.16;100.00;102588.28;2107253;28;20028;-66
2021/10/10 01:00:05;;;;;;;48.33;24.92;;;;;;;5.17;100.00;102591.75;2106479;28;20028;-66
2021/10/10 01:01:05;;;;;;;55.28;26.27;;;;;;;5.15;100.00;102581.38;2106564;28;20028;-67
2021/10/10 01:02:06;;;;;;;47.50;26.13;;;;;;;5.17;100.00;102586.56;2106559;28;20163;-66
2021/10/10 01:03:06;;;;;;;55.33;26.53;;;;;;;5.17;100.00;102582.28;2107259;28;20297;-67
2021/10/10 01:04:07;;;;;;;46.75;26.25;;;;;;;5.14;100.00;102580.50;2107204;28;20410;-67
2021/10/10 01:05:07;;;;;;;44.83;24.60;;;;;;;5.11;100.00;102583.09;2106472;28;20027;-66
2021/10/10 01:06:08;;;;;;;47.30;25.83;;;;;;;5.13;100.00;102581.34;2106676;28;20077;-66
2021/10/10 01:07:09;;;;;;;51.10;25.80;;;;;;;5.12;100.00;102581.34;2106524;28;20465;-66
2021/10/10 01:08:12;;;;;;;53.35;26.38;;;;;;;5.11;100.00;102577.91;2106571;28;20107;-67
2021/10/10 01:09:13;;;;;;;55.95;26.45;;;;;;;5.09;100.00;102574.44;2107210;28;20042;-66
2021/10/10 01:10:14;;;;;;;49.40;27.33;;;;;;;5.11;100.00;102577.03;2106998;28;20361;-66
2021/10/10 01:11:15;;;;;;;51.60;26.48;;;;;;;5.11;100.00;102577.91;2106404;28;20100;-67
2021/10/10 01:12:16;;;;;;;54.08;27.67;;;;;;;5.11;100.00;102575.31;2106517;28;20028;-66
2021/10/10 01:13:17;;;;;;;52.25;26.35;;;;;;;5.09;100.00;102579.59;2106440;28;20024;-67
2021/10/10 01:14:17;;;;;;;51.95;26.92;;;;;;;5.07;100.00;102575.28;2106515;28;20504;-67
2021/10/10 01:15:18;;;;;;;45.30;24.97;;;;;;;5.05;100.00;102577.84;2107178;28;20032;-66
2021/10/10 01:16:19;;;;;;;47.17;25.23;;;;;;;5.04;100.00;102576.13;2107126;28;20035;-66
2021/10/10 01:17:19;;;;;;;57.00;26.77;;;;;;;5.03;100.00;102582.13;2107102;28;20063;-66
2021/10/10 01:18:24;;;;;;;48.70;23.77;;;;;;;5.03;100.00;102575.25;2107144;28;20012;-68
2021/10/10 01:19:27;;;;;;;47.22;24.83;;;;;;;5.03;100.00;102576.94;2107096;28;20023;-67
2021/10/10 01:20:27;;;;;;;52.78;26.40;;;;;;;5.03;100.00;102579.53;2107068;28;20023;-67
2021/10/10 01:21:28;;;;;;;48.40;27.23;;;;;;;5.02;100.00;102585.56;2107119;28;20028;-66
2021/10/10 01:22:29;;;;;;;60.40;27.97;;;;;;;5.00;100.00;102576.94;2106972;28;20028;-66
2021/10/10 01:23:29;;;;;;;42.30;24.17;;;;;;;4.96;100.00;102576.03;2106423;28;20039;-66
2021/10/10 01:24:29;;;;;;;41.87;23.33;;;;;;;4.93;100.00;102588.09;2106552;28;20077;-67
2021/10/10 01:25:30;;;;;;;53.00;26.20;;;;;;;4.90;100.00;102579.44;2106987;28;20016;-67
2021/10/10 01:26:31;;;;;;;47.07;25.10;;;;;;;4.92;100.00;102578.59;2106884;28;20020;-67
2021/10/10 01:27:31;;;;;;;50.13;27.85;;;;;;;4.93;100.00;102580.31;2106985;28;20035;-66
2021/10/10 01:28:31;;;;;;;57.17;27.63;;;;;;;4.92;100.00;102579.44;2106321;28;20019;-65
2021/10/10 01:29:31;;;;;;;46.73;25.30;;;;;;;4.90;100.00;102578.59;2106411;28;20024;-66
2021/10/10 01:30:32;;;;;;;53.23;26.27;;;;;;;4.89;100.00;102582.88;2106953;28;20031;-67
2021/10/10 01:31:32;;;;;;;49.28;26.77;;;;;;;4.88;100.00;102581.16;2106983;28;20380;-67
2021/10/10 01:32:33;;;;;;;44.07;25.00;;;;;;;4.88;100.00;102578.56;2106861;28;20038;-66
2021/10/10 01:33:33;;;;;;;52.77;26.27;;;;;;;4.87;100.00;102578.53;2106767;28;20032;-67
2021/10/10 01:34:33;;;;;;;49.80;27.07;;;;;;;4.84;100.00;102579.38;2106905;28;20052;-66
2021/10/10 01:35:35;;;;;;;38.47;20.33;;;;;;;4.86;100.00;102577.66;2106967;28;20039;-67
2021/10/10 01:36:36;;;;;;;41.38;20.83;;;;;;;4.86;100.00;102590.59;2106247;28;20072;-66
2021/10/10 01:37:36;;;;;;;46.85;21.73;;;;;;;4.84;100.00;102584.56;2106325;28;20446;-66
2021/10/10 01:38:36;;;;;;;44.97;21.60;;;;;;;4.86;100.00;102588.00;2106312;28;20111;-67
2021/10/10 01:39:37;;;;;;;50.13;23.93;;;;;;;4.86;100.00;102582.84;2106308;28;20024;-67
2021/10/10 01:40:38;;;;;;;57.43;27.30;;;;;;;4.85;100.00;102591.47;2106913;28;20023;-66
2021/10/10 01:41:38;;;;;;;;;;;;;;;4.84;100.00;102587.16;2106680;28;20050;-66
2021/10/10 01:42:38;;;;;;;53.78;26.73;;;;;;;4.84;100.00;102584.56;2106342;28;20000;-67
2021/10/10 01:43:40;;;;;;;55.57;26.13;;;;;;;4.81;100.00;102581.94;2106914;28;20437;-67
2021/10/10 01:44:40;;;;;;;54.85;25.73;;;;;;;4.81;100.00;102579.34;2106277;28;20024;-66
2021/10/10 01:45:41;;;;;;;54.73;25.30;;;;;;;4.79;100.00;102575.88;2106334;28;20028;-67
2021/10/10 01:46:43;;;;;;;53.78;26.20;;;;;;;4.80;100.00;102575.03;2106879;28;20427;-66
2021/10/10 01:47:43;;;;;;;;;;;;;;;4.78;100.00;102576.72;2107333;28;20020;-66
2021/10/10 01:48:43;;;;;;;51.83;24.52;;;;;;;4.75;100.00;102574.09;2106866;28;19972;-67
2021/10/10 01:49:43;;;;;;;53.50;28.00;;;;;;;4.72;100.00;102567.19;2106821;28;20027;-67
2021/10/10 01:50:44;;;;;;;52.73;28.17;;;;;;;4.74;100.00;102574.97;2106889;28;20028;-66
2021/10/10 01:51:44;;;;;;;51.07;27.47;;;;;;;4.75;100.00;102574.09;2106729;28;20465;-66
2021/10/10 01:52:46;;;;;;;53.13;27.10;;;;;;;4.75;100.00;102574.09;2106260;28;20047;-66
2021/10/10 01:53:46;;;;;;;49.72;27.23;;;;;;;4.75;100.00;102574.97;2106297;28;20012;-66
2021/10/10 01:54:46;;;;;;;51.20;25.63;;;;;;;4.72;100.00;102569.78;2106082;28;20120;-65
2021/10/10 01:55:48;;;;;;;48.73;24.80;;;;;;;4.71;100.00;102572.34;2106232;28;20177;-67
2021/10/10 01:56:48;;;;;;;48.08;24.55;;;;;;;4.69;100.00;102574.06;2106853;28;20023;-66
2021/10/10 01:57:49;;;;;;;50.87;27.50;;;;;;;4.68;100.00;102570.59;2106835;28;20046;-67
2021/10/10 01:58:49;;;;;;;57.67;27.50;;;;;;;4.70;100.00;102570.63;2106786;28;20024;-67
2021/10/10 01:59:49;;;;;;;47.30;26.73;;;;;;;4.69;100.00;102559.38;2106787;28;20039;-66
2021/10/10 02:00:49;;;;;;;55.70;26.33;;;;;;;4.66;100.00;102561.97;2106799;28;20036;-66
2021/10/10 02:01:50;;;;;;;46.13;26.03;;;;;;;4.63;100.00;102562.78;2106759;28;20098;-66
2021/10/10 02:02:50;;;;;;;59.20;25.63;;;;;;;4.66;100.00;102559.38;2106094;28;20031;-67
2021/10/10 02:03:50;;;;;;;46.27;25.17;;;;;;;4.69;100.00;102561.13;2106202;28;20036;-65
2021/10/10 02:04:51;;;;;;;52.53;27.60;;;;;;;4.69;100.00;102566.31;2106787;28;20070;-66
2021/10/10 02:05:52;;;;;;;50.70;26.33;;;;;;;4.67;100.00;102555.06;2106846;28;20028;-66
2021/10/10 02:06:52;;;;;;;49.20;26.10;;;;;;;4.63;100.00;102564.53;2105721;28;20505;-66
2021/10/10 02:07:53;;;;;;;50.83;25.17;;;;;;;4.61;100.00;102561.91;2105567;28;20023;-67
2021/10/10 02:08:53;;;;;;;51.63;27.13;;;;;;;4.58;100.00;102563.63;2106720;28;20476;-67
2021/10/10 02:09:53;;;;;;;53.10;26.57;;;;;;;4.57;100.00;102560.16;2106743;28;20043;-67
2021/10/10 02:10:54;;;;;;;51.50;25.73;;;;;;;4.59;100.00;102562.75;2106815;28;20729;-67
2021/10/10 02:11:54;;;;;;;55.63;24.97;;;;;;;4.60;100.00;102565.34;2106642;28;20081;-66
2021/10/10 02:12:54;;;;;;;50.33;26.77;;;;;;;4.61;100.00;102563.63;2106722;28;20028;-66
2021/10/10 02:13:54;;;;;;;53.37;27.33;;;;;;;4.61;100.00;102564.50;2106735;28;20024;-66
2021/10/10 02:14:54;;;;;;;51.40;27.20;;;;;;;4.59;100.00;102563.59;2106813;28;20531;-66
2021/10/10 02:15:57;;;;;;;54.50;28.77;;;;;;;4.58;100.00;102561.88;2106768;28;20442;-66
2021/10/10 02:16:57;;;;;;;52.65;27.48;;;;;;;4.57;100.00;102565.31;2106586;28;20028;-65
2021/10/10 02:17:57;;;;;;;46.27;25.00;;;;;;;4.55;100.00;102559.25;2106770;28;20028;-66
2021/10/10 02:18:57;;;;;;;54.13;26.77;;;;;;;4.55;100.00;102556.66;2106614;28;20043;-65
2021/10/10 02:19:58;;;;;;;49.03;25.63;;;;;;;4.54;100.00;102564.41;2106759;28;20035;-67
2021/10/10 02:20:58;;;;;;;48.63;23.27;;;;;;;4.53;100.00;102557.50;2106056;28;20485;-66
2021/10/10 02:21:58;;;;;;;52.90;24.83;;;;;;;4.52;100.00;102559.25;2106114;28;20032;-66
2021/10/10 02:22:59;;;;;;;48.00;25.10;;;;;;;4.52;100.00;102554.06;2106170;28;20032;-66
2021/10/10 02:23:59;;;;;;;46.42;23.30;;;;;;;4.52;100.00;102556.66;2106620;28;20024;-66
2021/10/10 02:25:00;;;;;;;51.50;27.30;;;;;;;4.53;100.00;102550.63;2106036;28;20024;-65
2021/10/10 02:26:00;;;;;;;44.40;21.50;;;;;;;4.55;100.00;102553.22;2106077;28;20034;-66
2021/10/10 02:27:00;;;;;;;53.70;25.67;;;;;;;4.53;100.00;102548.03;2106726;28;20035;-65
2021/10/10 02:28:01;;;;;;;45.07;24.77;;;;;;;4.50;100.00;102548.00;2106582;28;20028;-66
2021/10/10 02:29:01;;;;;;;43.27;22.87;;;;;;;4.47;100.00;102546.25;2105960;28;20032;-65
2021/10/10 02:30:02;;;;;;;50.30;24.37;;;;;;;4.48;100.00;102542.81;2106086;28;20081;-67
2021/10/10 02:31:02;;;;;;;45.85;24.23;;;;;;;4.47;100.00;102543.66;2106659;28;20028;-67
2021/10/10 02:32:03;;;;;;;50.87;25.17;;;;;;;4.46;100.00;102541.94;2105590;28;20122;-66
2021/10/10 02:33:03;;;;;;;44.37;24.77;;;;;;;4.44;100.00;102541.03;2106126;28;20073;-66
2021/10/10 02:34:03;;;;;;;46.03;24.63;;;;;;;4.42;100.00;102534.13;2105793;28;20066;-66
2021/10/10 02:35:05;;;;;;;55.50;24.60;;;;;;;4.41;100.00;102546.19;2106111;28;20448;-66
2021/10/10 02:36:05;;;;;;;47.92;26.27;;;;;;;4.43;100.00;102541.03;2106633;28;20026;-66
2021/10/10 02:37:07;;;;;;;49.97;24.67;;;;;;;4.42;100.00;102542.75;2106542;28;20059;-66
2021/10/10 02:38:07;;;;;;;54.65;25.38;;;;;;;4.42;100.00;102539.31;2106785;28;20048;-66
2021/10/10 02:39:08;;;;;;;46.40;25.10;;;;;;;4.38;100.00;102539.25;2106039;28;20075;-68
2021/10/10 02:40:10;;;;;;;47.60;25.08;;;;;;;4.38;100.00;102539.25;2106077;28;20024;-65
2021/10/10 02:41:10;;;;;;;;;;;;;;;4.37;100.00;102534.94;2107119;28;20032;-66
2021/10/10 02:42:10;;;;;;;46.17;24.20;;;;;;;4.38;100.00;102544.44;2105926;28;19958;-66
2021/10/10 02:43:11;;;;;;;45.33;23.03;;;;;;;4.37;100.00;102537.53;2106050;28;20032;-66
2021/10/10 02:44:11;;;;;;;48.50;24.60;;;;;;;4.37;100.00;102542.72;2105851;28;20505;-67
2021/10/10 02:45:11;;;;;;;48.87;25.30;;;;;;;4.37;100.00;102544.41;2097759;28;20115;-66
2021/10/10 02:46:11;;;;;;;50.40;25.40;;;;;;;4.35;100.00;102539.22;2097523;28;20091;-65
2021/10/10 02:47:12;;;;;;;45.80;24.50;;;;;;;4.34;100.00;102539.19;2106080;28;20050;-66
2021/10/10 02:48:12;;;;;;;47.67;24.27;;;;;;;4.33;100.00;102543.53;2106543;28;20085;-66
2021/10/10 02:49:12;;;;;;;45.00;24.83;;;;;;;4.34;100.00;102536.63;2105915;28;20289;-66
2021/10/10 02:50:13;;;;;;;45.47;24.77;;;;;;;4.33;100.00;102542.66;2106045;28;20024;-66
2021/10/10 02:51:14;;;;;;;52.00;26.43;;;;;;;4.32;100.00;102539.22;2105901;28;20390;-66
2021/10/10 02:52:16;;;;;;;47.55;25.20;;;;;;;4.30;100.00;102538.31;2106036;28;20370;-65
2021/10/10 02:53:16;;;;;;;44.78;23.13;;;;;;;4.30;100.00;102540.91;2106627;28;20032;-66
2021/10/10 02:54:17;;;;;;;49.80;25.17;;;;;;;4.32;100.00;102531.47;2106642;28;20035;-66
2021/10/10 02:55:17;;;;;;;45.63;22.50;;;;;;;4.35;100.00;102534.06;2106514;28;20020;-65
2021/10/10 02:56:17;;;;;;;49.23;23.47;;;;;;;4.36;100.00;102533.22;2106552;28;20506;-66
2021/10/10 02:57:18;;;;;;;48.67;26.13;;;;;;;4.39;100.00;102534.97;2106494;28;20103;-67
2021/10/10 02:58:19;;;;;;;42.53;24.75;;;;;;;4.38;100.00;102535.81;2106634;28;20027;-66
2021/10/10 02:59:19;;;;;;;43.97;22.70;;;;;;;4.36;100.00;102540.09;2106522;28;20473;-66
2021/10/10 03:00:19;;;;;;;42.77;24.33;;;;;;;4.36;100.00;102534.94;2106121;28;20077;-66
2021/10/10 03:01:20;;;;;;;53.53;26.17;;;;;;;4.34;100.00;102534.91;2106559;28;20016;-66
2021/10/10 03:02:20;;;;;;;46.23;23.40;;;;;;;4.36;100.00;102532.34;2106634;28;20103;-67
2021/10/10 03:03:20;;;;;;;52.07;24.97;;;;;;;4.36;100.00;102530.63;2106552;28;20530;-66
2021/10/10 03:04:20;;;;;;;44.60;24.00;;;;;;;4.41;100.00;102529.81;2106459;28;20044;-66
2021/10/10 03:05:20;;;;;;;43.80;23.20;;;;;;;4.41;100.00;102533.25;2106396;28;20058;-65
2021/10/10 03:06:21;;;;;;;45.00;25.23;;;;;;;4.41;100.00;102528.09;2106138;28;20068;-66
2021/10/10 03:07:22;;;;;;;43.43;23.07;;;;;;;4.41;100.00;102532.41;2106110;28;20016;-66
2021/10/10 03:08:22;;;;;;;47.85;25.58;;;;;;;4.43;100.00;102528.09;2106412;28;20118;-66
2021/10/10 03:09:23;;;;;;;44.77;23.73;;;;;;;4.44;100.00;102533.28;2106506;28;20518;-65
2021/10/10 03:10:23;;;;;;;45.07;23.03;;;;;;;4.42;100.00;102527.25;2106535;28;20107;-66
2021/10/10 03:11:23;;;;;;;46.77;24.37;;;;;;;4.41;100.00;102528.09;2106507;28;20099;-65
2021/10/10 03:12:24;;;;;;;43.17;24.17;;;;;;;4.40;100.00;102530.66;2106424;28;20115;-65
2021/10/10 03:13:24;;;;;;;45.03;22.87;;;;;;;4.36;100.00;102525.47;2106565;28;20085;-66
2021/10/10 03:14:24;;;;;;;44.43;23.20;;;;;;;4.36;100.00;102527.19;2106523;28;20028;-66
2021/10/10 03:15:24;;;;;;;44.63;23.87;;;;;;;4.36;100.00;102524.59;2106669;28;20027;-65
2021/10/10 03:16:25;;;;;;;37.90;22.07;;;;;;;4.33;100.00;102522.84;2106496;28;20032;-66
2021/10/10 03:17:25;;;;;;;44.50;21.13;;;;;;;4.32;100.00;102526.28;2106519;28;20012;-66
2021/10/10 03:18:26;;;;;;;45.37;23.30;;;;;;;4.34;100.00;102532.31;2106567;28;20032;-66
2021/10/10 03:19:26;;;;;;;41.58;21.83;;;;;;;4.34;100.00;102524.56;2108067;28;20051;-66
2021/10/10 03:20:27;;;;;;;46.33;23.20;;;;;;;4.33;100.00;102525.44;2107977;28;20081;-65
2021/10/10 03:21:27;;;;;;;39.47;23.17;;;;;;;4.32;100.00;102526.28;2108127;28;20031;-66
2021/10/10 03:22:27;;;;;;;44.60;23.90;;;;;;;4.32;100.00;102522.81;2107944;28;20040;-66
2021/10/10 03:23:28;;;;;;;45.23;23.33;;;;;;;4.32;100.00;102525.41;2108018;28;20032;-66
2021/10/10 03:24:28;;;;;;;45.37;23.37;;;;;;;4.32;100.00;102525.41;2107889;28;20017;-66
2021/10/10 03:25:28;;;;;;;47.23;23.70;;;;;;;4.32;100.00;102531.47;2107328;28;20023;-66
2021/10/10 03:26:28;;;;;;;43.67;22.63;;;;;;;4.31;100.00;102527.13;2107344;28;20028;-66
2021/10/10 03:27:29;;;;;;;43.10;23.57;;;;;;;4.31;100.00;102532.28;2107986;28;20024;-65
2021/10/10 03:28:29;;;;;;;41.70;22.57;;;;;;;4.32;100.00;102528.00;2107915;28;20032;-65
2021/10/10 03:29:29;;;;;;;44.33;24.23;;;;;;;4.31;100.00;102531.44;2107998;28;20020;-65
2021/10/10 03:30:30;;;;;;;41.47;23.17;;;;;;;4.29;100.00;102523.66;2107960;28;20035;-66
2021/10/10 03:31:30;;;;;;;46.93;24.67;;;;;;;4.28;100.00;102529.69;2107965;28;20024;-66
2021/10/10 03:32:30;;;;;;;40.90;21.90;;;;;;;4.25;100.00;102524.47;2107981;28;20103;-65
2021/10/10 03:33:31;;;;;;;45.30;21.47;;;;;;;4.24;100.00;102525.31;2107099;28;20020;-65
2021/10/10 03:34:31;;;;;;;45.13;22.23;;;;;;;4.22;100.00;102527.03;2107365;28;20077;-66
2021/10/10 03:35:31;;;;;;;44.10;23.80;;;;;;;4.22;100.00;102532.19;2107891;28;20081;-65
2021/10/10 03:36:32;;;;;;;38.87;21.87;;;;;;;4.21;100.00;102531.31;2107823;28;20036;-66
2021/10/10 03:37:35;;;;;;;36.50;21.83;;;;;;;4.20;100.00;102528.72;2107844;28;20112;-65
2021/10/10 03:38:35;;;;;;;41.17;21.75;;;;;;;4.16;100.00;102522.66;2107293;28;20439;-66
2021/10/10 03:39:36;;;;;;;38.33;20.10;;;;;;;4.15;100.00;102526.09;2107308;28;20054;-66
2021/10/10 03:40:36;;;;;;;43.60;22.87;;;;;;;4.15;100.00;102531.25;2107943;28;20022;-66
2021/10/10 03:41:36;;;;;;;40.37;22.13;;;;;;;4.15;100.00;102520.94;2107882;28;20548;-66
2021/10/10 03:42:37;;;;;;;43.10;21.97;;;;;;;4.15;100.00;102526.09;2107897;28;20027;-66
2021/10/10 03:43:39;;;;;;;40.47;21.92;;;;;;;4.12;100.00;102524.34;2107845;28;20095;-66
2021/10/10 03:44:39;;;;;;;;;;;;;;;4.12;100.00;102526.94;2108284;28;20022;-66
2021/10/10 03:45:40;;;;;;;43.03;20.10;;;;;;;4.12;100.00;102526.06;2107867;28;19908;-66
2021/10/10 03:46:40;;;;;;;41.93;22.00;;;;;;;4.12;100.00;102521.75;2107205;28;20028;-66
2021/10/10 03:47:41;;;;;;;44.33;21.40;;;;;;;4.11;100.00;102525.16;2107235;28;20066;-66
2021/10/10 03:48:41;;;;;;;39.35;22.80;;;;;;;4.11;100.00;102525.16;2107816;28;20465;-65
2021/10/10 03:49:42;;;;;;;51.43;22.60;;;;;;;4.10;100.00;102527.72;2107833;28;20050;-65
2021/10/10 03:50:42;;;;;;;39.67;20.48;;;;;;;4.07;100.00;102525.97;2107904;28;20499;-65
2021/10/10 03:51:43;;;;;;;38.77;21.00;;;;;;;4.04;100.00;102528.53;2107895;28;20028;-68
2021/10/10 03:52:43;;;;;;;41.80;20.53;;;;;;;4.03;100.00;102531.97;2107799;28;20111;-66
2021/10/10 03:56:19;;;;;;;45.65;22.15;;;;;;;3.99;100.00;102525.03;2107989;28;20039;-65
2021/10/10 03:57:23;;;;;;;39.47;21.57;;;;;;;4.01;100.00;102527.63;2107700;28;20024;-67
2021/10/10 03:58:24;;;;;;;46.38;22.45;;;;;;;4.01;100.00;102528.50;2107791;28;20027;-66
2021/10/10 03:59:24;;;;;;;39.40;23.33;;;;;;;4.01;100.00;102528.50;2107095;28;20599;-66
2021/10/10 04:00:28;;;;;;;33.33;19.20;;;;;;;4.01;100.00;102523.34;2107164;28;20036;-66
2021/10/10 04:01:28;;;;;;;38.08;20.95;;;;;;;4.01;100.00;102525.94;2107003;28;20417;-65
2021/10/10 04:02:28;;;;;;;39.80;20.97;;;;;;;4.02;100.00;102537.09;2107071;28;20066;-66
2021/10/10 04:03:29;;;;;;;35.07;18.17;;;;;;;4.02;100.00;102529.38;2107096;28;20042;-65
2021/10/10 04:04:32;;;;;;;37.47;20.50;;;;;;;4.03;100.00;102525.94;2107699;28;20031;-67
2021/10/10 04:06:34;;;;;;;43.63;20.63;;;;;;;4.05;100.00;102529.41;2107887;28;20027;-66
2021/10/10 04:07:34;;;;;;;45.30;23.17;;;;;;;4.05;100.00;102519.94;2107682;28;20058;-66
2021/10/10 04:08:34;;;;;;;49.80;25.27;;;;;;;4.06;100.00;102521.69;2107694;28;20028;-65
2021/10/10 04:09:35;;;;;;;53.70;23.83;;;;;;;4.09;100.00;102521.72;2107637;28;20028;-66
2021/10/10 04:10:35;;;;;;;55.97;23.10;;;;;;;4.09;100.00;102523.44;2107760;28;20110;-66
2021/10/10 04:11:35;;;;;;;44.00;20.90;;;;;;;4.08;100.00;102514.78;2107723;28;20285;-66
2021/10/10 04:12:35;;;;;;;41.50;20.80;;;;;;;4.08;100.00;102519.13;2106908;28;20020;-67
2021/10/10 04:13:37;;;;;;;53.87;24.27;;;;;;;4.09;100.00;102521.72;2107077;28;20077;-66
2021/10/10 04:14:37;;;;;;;41.33;22.13;;;;;;;4.09;100.00;102524.31;2107673;28;20107;-67
2021/10/10 04:15:37;;;;;;;47.70;21.93;;;;;;;4.11;100.00;102522.59;2107058;28;20093;-66
2021/10/10 04:16:37;;;;;;;68.53;23.47;;;;;;;4.15;100.00;102522.63;2107089;28;20049;-66
2021/10/10 04:17:38;;;;;;;57.03;21.57;;;;;;;4.14;100.00;102519.16;2107601;28;20131;-67
2021/10/10 04:18:38;;;;;;;55.35;22.38;;;;;;;4.15;100.00;102520.94;2106914;28;20016;-65
2021/10/10 04:19:39;;;;;;;42.03;19.97;;;;;;;4.17;100.00;102520.94;2106910;28;20039;-66
2021/10/10 04:20:39;;;;;;;42.90;20.60;;;;;;;4.17;100.00;102524.38;2106936;28;20015;-66
2021/10/10 04:21:39;;;;;;;41.40;19.43;;;;;;;4.18;100.00;102525.25;2107009;28;20048;-66
2021/10/10 04:22:40;;;;;;;61.03;22.53;;;;;;;4.20;100.00;102515.78;2106900;28;20388;-65
2021/10/10 04:23:40;;;;;;;42.85;20.98;;;;;;;4.23;100.00;102528.75;2106974;28;20070;-66
2021/10/10 04:24:41;;;;;;;46.20;22.23;;;;;;;4.23;100.00;102521.00;2106856;28;20077;-65
2021/10/10 04:25:41;;;;;;;58.40;22.93;;;;;;;4.23;100.00;102523.59;2106911;28;20484;-66
2021/10/10 04:26:41;;;;;;;72.40;22.90;;;;;;;4.24;100.00;102521.00;2107592;28;20020;-66
2021/10/10 04:27:42;;;;;;;51.80;22.40;;;;;;;4.26;100.00;102533.97;2107568;28;20020;-65
2021/10/10 04:28:42;;;;;;;50.95;21.85;;;;;;;4.27;100.00;102524.50;2107513;28;20047;-66
2021/10/10 04:29:42;;;;;;;49.20;22.40;;;;;;;4.28;100.00;102532.28;2107394;28;20020;-66
2021/10/10 04:30:43;;;;;;;59.20;22.83;;;;;;;4.29;100.00;102526.25;2106539;28;20051;-66
2021/10/10 04:31:43;;;;;;;56.67;22.43;;;;;;;4.30;100.00;102529.69;2106784;28;20397;-66
2021/10/10 04:32:44;;;;;;;47.33;21.03;;;;;;;4.29;100.00;102528.84;2106896;28;20074;-67
2021/10/10 04:33:44;;;;;;;73.32;24.08;;;;;;;4.28;100.00;102537.44;2107348;28;20044;-66
2021/10/10 04:34:44;;;;;;;66.20;24.27;;;;;;;4.28;100.00;102532.28;2107468;28;20021;-66
2021/10/10 04:35:48;;;;;;;46.53;21.00;;;;;;;4.28;100.00;102527.09;2107482;28;20047;-67
2021/10/10 04:36:48;;;;;;;66.45;21.88;;;;;;;4.27;100.00;102525.34;2107438;28;20020;-66
2021/10/10 04:37:48;;;;;;;51.07;21.67;;;;;;;4.28;100.00;102524.53;2107298;28;20056;-66
2021/10/10 04:38:49;;;;;;;46.97;21.30;;;;;;;4.29;100.00;102522.78;2107452;28;20070;-66